KBWI

Baltimore / Washington International Thurgood Marshall Airport

Baltimore, Maryland, USA
METAR KBWI 231054Z 24004KT 10SM SCT100 BKN180 07/05 A3008 RMK AO2 SLP186 T00670050
Observed Flight Rules
Oct-23 @ 10:54 UTC (54 minutes ago) Visual Flight Rules
Wind Visibility Clouds
240° at 4 knots 10 miles
  • Scattered at 10,000' AGL
  • Broken at 18,000' AGL
Temperatures Readings
Current 7°C / 45°F
Dewpoint 5°C / 41°F
Humidity 87%
Altimeter 30.08" Hg
Pressure 1018.6 hPa
Elevation 59
METAR KBWI 231054Z 24004KT 10SM SCT100 BKN180 07/05 A3008 RMK AO2 SLP186 T00670050
Observed Flight Rules
Oct-23 @ 10:54 UTC
(54 minutes ago)
VFR
Wind Visibility
240° at 4 knots 10 miles
Clouds
  • Scattered at 10,000' AGL
  • Broken at 18,000' AGL
Temperature Dewpoint
7°C / 45°F 5°C / 41°F
Humidity Altimeter Pressure
87% 30.08" Hg 1018.6 hPa